Brymbo, United Kingdom
Current Conditions -  °F | °C
As of 9:50 AM on Friday 24 Oct 2014 (Local Time) from EGNR Reporting Station
Scattered Clouds Scattered Clouds  
Wind Chill: 54°   Ceiling: Unl
Heat Index: 54°   Visibility: 6mi
Dew Point: 54°   Wind: 5mph
Humidity: 100%   Direction: 140°SE
Pressure: 29.91"   Gusts: NA
Location:  53.07°N, 3.07°W
Report Text: EGNR 240850Z 14004KT 120V210 9999 FEW008 SCT025 12/12 Q1013
Loading
Personal Weather Stations






























Interactive Weather Map New forecast layout! Learn more

10-Day Weather Forecast

Advertisements
Track Severe Weather on mobile